createdAt,value
2023-02-14T00:01:27.837Z,7.13
2023-02-14T00:03:54.697Z,7.60
2023-02-14T00:06:21.185Z,7.93
2023-02-14T00:08:47.608Z,7.80
2023-02-14T00:11:14.992Z,7.65
2023-02-14T00:14:01.503Z,7.40
2023-02-14T00:16:28.018Z,6.75
2023-02-14T00:19:03.429Z,9.05
2023-02-14T00:21:30.881Z,7.60
2023-02-14T00:23:57.270Z,9.07
2023-02-14T00:26:23.767Z,8.35
2023-02-14T00:28:50.408Z,8.57
2023-02-14T00:31:16.988Z,7.70
2023-02-14T00:33:43.554Z,8.95
2023-02-14T00:36:10.632Z,7.28
2023-02-14T00:38:37.114Z,7.38
2023-02-14T00:41:03.728Z,9.02
2023-02-14T00:43:30.151Z,6.80
2023-02-14T00:49:10.363Z,8.70
2023-02-14T00:51:37.797Z,9.80
2023-02-14T00:54:04.356Z,8.13
2023-02-14T00:56:31.258Z,8.57
2023-02-14T00:58:57.721Z,9.75
2023-02-14T01:01:24.220Z,8.77
2023-02-14T01:03:50.818Z,9.27
2023-02-14T01:06:18.315Z,10.43
2023-02-14T01:08:44.928Z,9.23
2023-02-14T01:11:12.883Z,8.63
2023-02-14T01:13:39.507Z,10.95
2023-02-14T01:16:07.559Z,8.98
2023-02-14T01:18:34.148Z,9.98
2023-02-14T01:21:33.303Z,10.73
2023-02-14T01:24:04.828Z,10.18
2023-02-14T01:26:31.323Z,8.80
2023-02-14T01:29:00.762Z,7.95
2023-02-14T01:31:30.684Z,10.13
2023-02-14T01:33:57.719Z,9.23
2023-02-14T01:36:24.202Z,11.93
2023-02-14T01:38:51.782Z,12.45
2023-02-14T01:41:18.298Z,9.18
2023-02-14T01:43:56.935Z,10.05
2023-02-14T01:46:24.312Z,11.02
2023-02-14T01:48:50.850Z,10.77
2023-02-14T01:51:18.816Z,11.32
2023-02-14T01:53:45.486Z,9.68
2023-02-14T01:56:14.968Z,9.30
2023-02-14T01:58:45.030Z,10.73
2023-02-14T02:01:16.564Z,10.40
2023-02-14T02:04:03.274Z,11.32
2023-02-14T02:06:31.202Z,10.40
2023-02-14T02:09:02.419Z,11.60
2023-02-14T02:11:29.808Z,9.98
2023-02-14T02:13:56.263Z,10.60
2023-02-14T02:16:31.369Z,10.13
2023-02-14T02:18:57.849Z,12.48
2023-02-14T02:21:30.104Z,9.98
2023-02-14T02:24:01.005Z,10.82
2023-02-14T02:26:46.658Z,10.80
2023-02-14T02:29:22.273Z,12.57
2023-02-14T02:31:54.707Z,11.20
2023-02-14T02:34:33.376Z,11.00
2023-02-14T02:37:02.532Z,11.20
2023-02-14T02:39:32.780Z,10.98
2023-02-14T02:42:05.154Z,11.48
2023-02-14T02:44:40.742Z,10.73
2023-02-14T02:47:27.522Z,12.15
2023-02-14T02:50:12.589Z,11.55
2023-02-14T02:53:01.481Z,12.45
2023-02-14T02:55:53.135Z,10.95
2023-02-14T02:58:21.212Z,11.55
2023-02-14T03:00:49.098Z,14.38
2023-02-14T03:03:34.308Z,11.15
2023-02-14T03:06:01.258Z,10.10
2023-02-14T03:08:27.686Z,10.18
2023-02-14T03:10:54.326Z,9.68
2023-02-14T03:13:23.874Z,10.77
2023-02-14T03:16:02.654Z,12.40
2023-02-14T03:19:07.070Z,11.45
2023-02-14T03:24:00.315Z,12.55
2023-02-14T03:26:42.260Z,11.45
2023-02-14T03:29:15.058Z,11.63
2023-02-14T03:32:00.221Z,11.38
2023-02-14T03:34:31.196Z,11.38
2023-02-14T03:36:57.672Z,11.48
2023-02-14T03:39:29.894Z,12.85
2023-02-14T03:42:18.909Z,13.10
2023-02-14T03:44:47.109Z,12.75
2023-02-14T03:47:17.997Z,12.85
2023-02-14T03:49:46.159Z,11.88
2023-02-14T03:52:14.178Z,13.00
2023-02-14T03:54:40.795Z,16.58
2023-02-14T03:57:20.956Z,12.63
2023-02-14T03:59:48.245Z,14.80
2023-02-14T04:02:17.698Z,12.18
2023-02-14T04:04:45.791Z,13.25
2023-02-14T04:07:13.817Z,13.45
2023-02-14T04:09:40.372Z,12.95
2023-02-14T04:12:07.065Z,12.05
2023-02-14T04:14:33.625Z,14.77
2023-02-14T04:17:18.827Z,12.43
2023-02-14T04:19:45.258Z,14.00
2023-02-14T04:22:11.690Z,12.48
2023-02-14T04:24:38.411Z,17.35
2023-02-14T04:27:11.030Z,14.63
2023-02-14T04:29:38.958Z,12.70
2023-02-14T04:32:06.727Z,14.82
2023-02-14T04:34:33.284Z,14.02
2023-02-14T04:36:59.812Z,14.25
2023-02-14T04:39:26.262Z,14.82
2023-02-14T04:41:52.735Z,15.43
2023-02-14T04:44:19.114Z,13.95
2023-02-14T04:46:45.595Z,15.95
2023-02-14T04:49:12.027Z,16.13
2023-02-14T04:51:38.422Z,14.55
2023-02-14T04:54:04.879Z,16.70
2023-02-14T04:56:31.299Z,14.38
2023-02-14T04:58:57.705Z,14.50
2023-02-14T05:01:24.229Z,15.50
2023-02-14T05:03:50.748Z,14.55
2023-02-14T05:06:17.222Z,16.33
2023-02-14T05:08:43.618Z,16.52
2023-02-14T05:11:10.151Z,16.20
2023-02-14T05:13:36.617Z,15.07
2023-02-14T05:16:03.183Z,15.38
2023-02-14T05:18:29.722Z,16.65
2023-02-14T05:20:56.188Z,14.82
2023-02-14T05:23:22.592Z,13.52
2023-02-14T05:25:49.619Z,16.55
2023-02-14T05:28:16.127Z,17.92
2023-02-14T05:30:42.706Z,17.02
2023-02-14T05:33:09.156Z,14.63
2023-02-14T05:35:35.561Z,15.35
2023-02-14T05:38:02.055Z,14.40
2023-02-14T05:40:28.755Z,15.48
2023-02-14T05:42:55.943Z,16.92
2023-02-14T05:45:22.757Z,16.10
2023-02-14T05:47:49.523Z,17.80
2023-02-14T05:50:16.548Z,17.15
2023-02-14T05:52:43.235Z,17.30
2023-02-14T05:55:10.266Z,15.40
2023-02-14T05:57:36.682Z,18.55
2023-02-14T06:00:05.542Z,16.83
2023-02-14T06:02:38.624Z,20.60
2023-02-14T06:05:05.284Z,17.27
2023-02-14T06:07:31.680Z,14.15
2023-02-14T06:09:58.171Z,16.45
2023-02-14T06:12:24.650Z,17.45
2023-02-14T06:14:51.063Z,17.70
2023-02-14T06:17:17.540Z,18.15
2023-02-14T06:19:43.932Z,16.80
2023-02-14T06:22:10.464Z,17.08
2023-02-14T06:24:37.083Z,18.63
2023-02-14T06:27:03.642Z,17.77
2023-02-14T06:29:30.148Z,14.02
2023-02-14T06:31:56.791Z,16.48
2023-02-14T06:34:23.235Z,17.88
2023-02-14T06:36:49.677Z,18.15
2023-02-14T06:39:16.112Z,16.17
2023-02-14T06:41:42.601Z,19.35
2023-02-14T06:44:10.466Z,18.98
2023-02-14T06:46:37.195Z,22.42
2023-02-14T06:49:03.610Z,22.42
2023-02-14T06:51:30.027Z,18.38
2023-02-14T06:53:56.478Z,19.88
2023-02-14T06:56:22.888Z,14.93
2023-02-14T06:58:49.318Z,16.20
2023-02-14T07:01:15.882Z,14.65
2023-02-14T07:03:42.550Z,18.85
2023-02-14T07:06:08.988Z,16.90
2023-02-14T07:08:35.444Z,17.05
2023-02-14T07:11:02.185Z,17.90
2023-02-14T07:13:28.727Z,15.60
2023-02-14T07:15:55.361Z,15.18
2023-02-14T07:18:21.822Z,17.05
2023-02-14T07:20:49.445Z,19.92
2023-02-14T07:23:15.845Z,17.90
2023-02-14T07:25:42.380Z,16.13
2023-02-14T07:28:08.808Z,16.00
2023-02-14T07:30:35.364Z,15.02
2023-02-14T07:33:01.797Z,15.18
2023-02-14T07:35:31.308Z,14.75
2023-02-14T07:37:57.904Z,14.48
2023-02-14T07:40:25.354Z,16.70
2023-02-14T07:42:55.783Z,17.25
2023-02-14T07:45:23.032Z,13.15
2023-02-14T07:47:50.518Z,13.27
2023-02-14T07:50:17.421Z,14.73
2023-02-14T07:52:44.322Z,14.25
2023-02-14T07:55:11.134Z,14.88
2023-02-14T07:57:37.639Z,16.00
2023-02-14T08:00:05.911Z,13.80
2023-02-14T08:02:38.388Z,14.82
2023-02-14T08:05:04.981Z,16.20
2023-02-14T08:07:31.588Z,15.18
2023-02-14T08:09:58.002Z,15.13
2023-02-14T08:12:42.920Z,15.70
2023-02-14T08:15:28.274Z,16.13
2023-02-14T08:17:55.945Z,16.15
2023-02-14T08:20:22.423Z,14.38
2023-02-14T08:22:48.849Z,14.43
2023-02-14T08:25:15.242Z,12.63
2023-02-14T08:27:41.653Z,14.85
2023-02-14T08:30:08.870Z,14.93
2023-02-14T08:32:35.538Z,14.30
2023-02-14T08:35:02.039Z,12.40
2023-02-14T08:37:28.530Z,14.25
2023-02-14T08:39:55.219Z,14.35
2023-02-14T08:42:21.686Z,14.50
2023-02-14T08:44:48.416Z,14.63
2023-02-14T08:47:14.830Z,14.82
2023-02-14T08:49:41.390Z,15.00
2023-02-14T08:52:07.831Z,15.75
2023-02-14T08:54:34.231Z,14.77
2023-02-14T08:57:01.299Z,13.35
2023-02-14T08:59:27.718Z,14.82
2023-02-14T09:01:54.190Z,12.35
2023-02-14T09:04:20.656Z,12.65
2023-02-14T09:06:47.140Z,14.13
2023-02-14T09:09:13.550Z,13.30
2023-02-14T09:11:40.065Z,14.43
2023-02-14T09:14:06.531Z,16.08
2023-02-14T09:16:33.098Z,12.82
2023-02-14T09:18:59.666Z,14.10
2023-02-14T09:21:27.395Z,14.15
2023-02-14T09:23:54.578Z,14.65
2023-02-14T09:26:21.524Z,12.82
2023-02-14T09:28:48.342Z,15.30
2023-02-14T09:31:19.591Z,14.20
2023-02-14T09:33:46.753Z,12.45
2023-02-14T09:36:31.665Z,13.05
2023-02-14T09:38:58.082Z,14.13
2023-02-14T09:41:30.659Z,14.07
2023-02-14T09:44:07.853Z,12.20
2023-02-14T09:46:39.535Z,13.73
2023-02-14T09:49:08.963Z,13.43
2023-02-14T09:51:46.459Z,14.88
2023-02-14T09:54:14.297Z,14.52
2023-02-14T09:56:50.644Z,13.95
2023-02-14T09:59:24.123Z,13.48
2023-02-14T10:01:58.617Z,11.97
2023-02-14T10:04:28.680Z,11.80
2023-02-14T10:06:55.136Z,13.60
2023-02-14T10:09:28.300Z,13.18
2023-02-14T10:11:55.538Z,15.43
2023-02-14T10:14:25.359Z,15.65
2023-02-14T10:17:02.126Z,14.10
2023-02-14T10:19:31.813Z,13.20
2023-02-14T10:22:01.198Z,12.02
2023-02-14T10:24:29.930Z,13.02
2023-02-14T10:27:01.275Z,13.77
2023-02-14T10:29:28.191Z,12.45
2023-02-14T10:31:59.197Z,13.65
2023-02-14T10:34:30.125Z,12.23
2023-02-14T10:37:16.034Z,12.27
2023-02-14T10:39:57.514Z,13.77
2023-02-14T10:42:23.928Z,11.73
2023-02-14T10:44:50.325Z,15.30
2023-02-14T10:47:22.642Z,13.82
2023-02-14T10:50:03.324Z,12.95
2023-02-14T10:52:38.787Z,12.52
2023-02-14T10:55:30.015Z,12.90
2023-02-14T10:57:58.614Z,13.00
2023-02-14T11:00:37.421Z,13.48
2023-02-14T11:03:06.583Z,12.90
2023-02-14T11:05:38.163Z,12.30
2023-02-14T11:08:14.482Z,13.23
2023-02-14T11:10:43.833Z,13.68
2023-02-14T11:13:26.711Z,13.70
2023-02-14T11:15:54.132Z,13.90
2023-02-14T11:18:22.832Z,12.13
2023-02-14T11:21:02.979Z,11.95
2023-02-14T11:23:32.964Z,12.00
2023-02-14T11:26:00.775Z,11.95
2023-02-14T11:28:27.699Z,12.05
2023-02-14T11:30:54.620Z,15.00
2023-02-14T11:33:35.051Z,13.98
2023-02-14T11:36:03.095Z,13.10
2023-02-14T11:38:31.252Z,13.75
2023-02-14T11:40:59.090Z,11.65
2023-02-14T11:43:37.208Z,15.50
2023-02-14T11:46:16.062Z,13.00
2023-02-14T11:48:55.403Z,16.58
2023-02-14T11:51:26.465Z,12.52
2023-02-14T11:53:57.208Z,15.38
2023-02-14T11:56:23.904Z,12.25
2023-02-14T11:58:53.101Z,14.55
2023-02-14T12:01:22.547Z,15.02
2023-02-14T12:03:49.434Z,14.95
2023-02-14T12:06:30.247Z,12.48
2023-02-14T12:09:15.420Z,13.98
2023-02-14T12:11:53.916Z,12.77
2023-02-14T12:14:22.229Z,12.50
2023-02-14T12:16:57.864Z,13.90
2023-02-14T12:19:44.520Z,13.27
2023-02-14T12:22:16.507Z,14.20
2023-02-14T12:24:49.868Z,16.65
2023-02-14T12:27:23.141Z,16.17
2023-02-14T12:29:52.665Z,15.57
2023-02-14T12:32:26.447Z,13.93
2023-02-14T12:34:56.115Z,17.73
2023-02-14T12:37:22.568Z,17.10
2023-02-14T12:39:49.493Z,16.27
2023-02-14T12:42:45.488Z,14.65
2023-02-14T12:45:21.748Z,15.13
2023-02-14T12:47:58.836Z,15.70
2023-02-14T12:50:25.231Z,13.20
2023-02-14T12:52:57.520Z,14.57
2023-02-14T12:55:36.991Z,13.80
2023-02-14T12:58:14.437Z,15.15
2023-02-14T13:00:59.328Z,17.33
2023-02-14T13:03:38.024Z,17.35
2023-02-14T13:06:23.035Z,16.30
2023-02-14T13:08:49.579Z,17.80
2023-02-14T13:11:34.454Z,15.35
2023-02-14T13:14:11.639Z,17.10
2023-02-14T13:16:44.937Z,18.05
2023-02-14T13:19:13.853Z,17.17
2023-02-14T13:21:41.057Z,20.70
2023-02-14T13:24:14.798Z,15.40
2023-02-14T13:26:43.111Z,16.83
2023-02-14T13:29:11.091Z,16.60
2023-02-14T13:31:38.435Z,18.92
2023-02-14T13:34:13.990Z,15.98
2023-02-14T13:36:40.718Z,19.38
2023-02-14T13:39:07.599Z,14.30
2023-02-14T13:41:34.408Z,16.30
2023-02-14T13:44:05.482Z,13.93
2023-02-14T13:46:31.922Z,13.98
2023-02-14T13:49:02.942Z,13.90
2023-02-14T13:51:49.717Z,14.75
2023-02-14T13:54:29.442Z,14.07
2023-02-14T13:56:56.482Z,16.02
2023-02-14T13:59:25.032Z,16.17
2023-02-14T14:01:51.715Z,16.02
2023-02-14T14:04:31.855Z,14.77
2023-02-14T14:07:04.668Z,16.13
2023-02-14T14:09:43.267Z,14.55
2023-02-14T14:12:27.901Z,13.65
2023-02-14T14:15:06.492Z,16.10
2023-02-14T14:17:33.312Z,13.32
2023-02-14T14:20:01.069Z,15.20
2023-02-14T14:22:28.356Z,15.07
2023-02-14T14:24:56.202Z,16.00
2023-02-14T14:27:24.721Z,14.40
2023-02-14T14:29:53.645Z,18.20
2023-02-14T14:32:26.329Z,17.33
2023-02-14T14:34:55.921Z,15.05
2023-02-14T14:37:24.025Z,14.88
2023-02-14T14:39:55.436Z,15.93
2023-02-14T14:42:23.007Z,15.63
2023-02-14T14:44:54.672Z,16.83
2023-02-14T14:47:24.418Z,17.33
2023-02-14T14:49:57.871Z,17.98
2023-02-14T14:54:50.866Z,31.67
2023-02-14T14:57:18.003Z,24.40
2023-02-14T14:59:45.664Z,19.13
2023-02-14T15:02:27.615Z,18.00
2023-02-14T15:04:54.162Z,16.60
2023-02-14T15:07:28.100Z,18.63
2023-02-14T15:09:54.561Z,19.70
2023-02-14T15:12:41.435Z,18.35
2023-02-14T15:15:10.854Z,23.80
2023-02-14T15:17:38.263Z,23.35
2023-02-14T15:20:07.248Z,27.00
2023-02-14T15:22:45.439Z,28.55
2023-02-14T15:25:22.466Z,29.23
2023-02-14T15:27:49.196Z,30.77
2023-02-14T15:30:18.963Z,32.33
2023-02-14T15:32:46.000Z,44.55
2023-02-14T15:35:14.248Z,80.15
2023-02-14T15:37:40.807Z,41.13
2023-02-14T15:40:08.803Z,29.52
2023-02-14T15:42:40.229Z,46.45
2023-02-14T15:45:26.034Z,35.17
2023-02-14T15:47:54.451Z,34.38
2023-02-14T15:50:24.370Z,35.20
2023-02-14T15:52:52.390Z,36.22
2023-02-14T15:55:19.922Z,35.80
2023-02-14T15:57:51.449Z,42.72
2023-02-14T16:00:21.581Z,37.95
2023-02-14T16:02:53.553Z,39.25
2023-02-14T16:05:24.425Z,37.15
2023-02-14T16:08:03.624Z,39.33
2023-02-14T16:10:39.424Z,41.83
2023-02-14T16:13:27.383Z,41.45
2023-02-14T16:16:01.159Z,40.47
2023-02-14T16:18:40.946Z,38.83
2023-02-14T16:21:24.714Z,37.03
2023-02-14T16:26:17.536Z,37.28
2023-02-14T16:28:44.106Z,34.72
2023-02-14T16:31:13.753Z,36.17
2023-02-14T16:33:40.744Z,34.65
2023-02-14T16:36:12.413Z,35.15
2023-02-14T16:38:43.747Z,37.00
2023-02-14T16:41:15.856Z,40.17
2023-02-14T16:43:42.258Z,39.75
2023-02-14T16:46:15.804Z,45.38
2023-02-14T16:51:15.377Z,43.53
2023-02-14T16:53:42.794Z,45.05
2023-02-14T16:56:13.060Z,42.65
2023-02-14T16:58:39.585Z,44.15
2023-02-14T17:01:06.000Z,40.78
2023-02-14T17:03:32.463Z,42.45
2023-02-14T17:05:59.993Z,45.90
2023-02-14T17:08:26.703Z,45.67
2023-02-14T17:10:53.623Z,44.08
2023-02-14T17:13:21.968Z,39.03
2023-02-14T17:15:48.806Z,42.60
2023-02-14T17:18:16.195Z,44.63
2023-02-14T17:20:42.751Z,38.60
2023-02-14T17:23:09.318Z,39.42
2023-02-14T17:25:35.804Z,39.38
2023-02-14T17:28:02.209Z,41.28
2023-02-14T17:30:28.867Z,39.55
2023-02-14T17:32:55.324Z,38.70
2023-02-14T17:35:21.879Z,37.08
2023-02-14T17:37:48.408Z,36.15
2023-02-14T17:40:15.033Z,38.25
2023-02-14T17:42:41.832Z,44.63
2023-02-14T17:45:08.667Z,39.00
2023-02-14T17:47:35.164Z,43.13
2023-02-14T17:50:03.529Z,48.20
2023-02-14T17:52:30.142Z,43.05
2023-02-14T17:54:56.836Z,44.83
2023-02-14T17:57:23.419Z,41.78
2023-02-14T17:59:51.093Z,42.33
2023-02-14T18:02:17.494Z,44.20
2023-02-14T18:04:43.923Z,45.15
2023-02-14T18:07:10.425Z,47.72
2023-02-14T18:09:36.958Z,47.25
2023-02-14T18:12:04.124Z,47.55
2023-02-14T18:14:31.408Z,55.35
2023-02-14T18:16:57.811Z,51.88
2023-02-14T18:19:24.282Z,46.53
2023-02-14T18:21:50.750Z,49.75
2023-02-14T18:24:17.186Z,46.35
2023-02-14T18:26:43.786Z,48.58
2023-02-14T18:29:10.899Z,44.72
2023-02-14T18:31:38.650Z,47.65
2023-02-14T18:34:05.226Z,45.70
2023-02-14T18:36:32.358Z,47.60
2023-02-14T18:38:58.825Z,54.28
2023-02-14T18:41:26.075Z,50.47
2023-02-14T18:43:52.819Z,49.10
2023-02-14T18:46:23.799Z,51.92
2023-02-14T18:48:50.763Z,50.53
2023-02-14T18:51:21.644Z,49.60
2023-02-14T18:53:48.443Z,54.20
2023-02-14T18:56:16.095Z,54.90
2023-02-14T18:58:43.756Z,55.55
2023-02-14T19:01:14.801Z,53.72
2023-02-14T19:03:41.792Z,56.88
2023-02-14T19:06:08.665Z,59.78
2023-02-14T19:08:36.126Z,55.42
2023-02-14T19:11:02.790Z,52.17
2023-02-14T19:13:29.622Z,54.35
2023-02-14T19:15:56.350Z,56.97
2023-02-14T19:18:25.533Z,54.88
2023-02-14T19:20:52.182Z,54.67
2023-02-14T19:23:19.717Z,59.42
2023-02-14T19:25:46.114Z,62.38
2023-02-14T19:28:12.660Z,59.22
2023-02-14T19:30:39.390Z,59.28
2023-02-14T19:33:06.888Z,58.22
2023-02-14T19:35:33.370Z,57.47
2023-02-14T19:38:03.407Z,57.50
2023-02-14T19:40:30.789Z,54.75
2023-02-14T19:42:57.277Z,62.13
2023-02-14T19:45:23.739Z,55.47
2023-02-14T19:47:50.668Z,55.28
2023-02-14T19:50:17.736Z,68.90
2023-02-14T19:52:44.535Z,72.38
2023-02-14T19:55:22.466Z,69.60
2023-02-14T19:57:49.023Z,72.82
2023-02-14T20:00:16.311Z,59.80
2023-02-14T20:02:48.068Z,60.83
2023-02-14T20:05:15.590Z,62.17
2023-02-14T20:07:43.471Z,66.53
2023-02-14T20:10:13.152Z,82.05
2023-02-14T20:12:39.603Z,65.88
2023-02-14T20:15:06.491Z,65.35
2023-02-14T20:17:33.228Z,65.20
2023-02-14T20:19:59.730Z,70.20
2023-02-14T20:22:26.298Z,57.80
2023-02-14T20:24:52.902Z,60.83
2023-02-14T20:27:19.938Z,75.00
2023-02-14T20:29:46.521Z,70.55
2023-02-14T20:32:15.036Z,66.47
2023-02-14T20:34:42.937Z,65.70
2023-02-14T20:37:11.150Z,72.07
2023-02-14T20:39:37.958Z,75.38
2023-02-14T20:42:04.837Z,70.95
2023-02-14T20:44:31.267Z,79.25
2023-02-14T20:46:57.729Z,75.68
2023-02-14T20:49:24.974Z,69.28
2023-02-14T20:51:51.850Z,67.03
2023-02-14T20:54:22.270Z,62.30
2023-02-14T20:56:48.833Z,64.15
2023-02-14T20:59:15.233Z,67.55
2023-02-14T21:01:41.791Z,62.78
2023-02-14T21:04:08.355Z,66.45
2023-02-14T21:06:35.593Z,66.68
2023-02-14T21:09:02.514Z,66.65
2023-02-14T21:11:28.969Z,64.15
2023-02-14T21:13:58.600Z,66.47
2023-02-14T21:16:26.240Z,65.00
2023-02-14T21:18:59.182Z,74.68
2023-02-14T21:21:25.965Z,61.40
2023-02-14T21:23:52.671Z,64.10
2023-02-14T21:26:20.044Z,59.90
2023-02-14T21:28:46.449Z,62.47
2023-02-14T21:31:14.001Z,59.75
2023-02-14T21:33:40.809Z,65.65
2023-02-14T21:36:11.476Z,56.45
2023-02-14T21:38:38.621Z,58.67
2023-02-14T21:41:06.618Z,60.78
2023-02-14T21:43:34.506Z,57.05
2023-02-14T21:46:04.906Z,55.63
2023-02-14T21:48:50.337Z,52.30
2023-02-14T21:51:17.243Z,59.42
2023-02-14T21:53:43.911Z,58.45
2023-02-14T21:56:11.322Z,59.45
2023-02-14T21:58:38.315Z,57.20
2023-02-14T22:01:05.100Z,57.42
2023-02-14T22:03:32.478Z,55.67
2023-02-14T22:06:05.486Z,57.75
2023-02-14T22:08:32.214Z,57.28
2023-02-14T22:10:59.361Z,57.65
2023-02-14T22:13:26.307Z,57.35
2023-02-14T22:15:52.726Z,58.42
2023-02-14T22:18:19.311Z,62.35
2023-02-14T22:20:46.208Z,60.45
2023-02-14T22:23:15.416Z,58.05
2023-02-14T22:25:42.015Z,59.08
2023-02-14T22:28:08.527Z,57.90
2023-02-14T22:30:35.392Z,56.88
2023-02-14T22:33:01.799Z,51.92
2023-02-14T22:35:28.350Z,54.78
2023-02-14T22:37:54.734Z,48.30
2023-02-14T22:40:21.195Z,55.35
2023-02-14T22:42:47.653Z,57.67
2023-02-14T22:45:14.249Z,51.35
2023-02-14T22:47:40.714Z,51.75
2023-02-14T22:50:07.602Z,54.33
2023-02-14T22:52:34.426Z,63.30
2023-02-14T22:55:00.870Z,54.75
2023-02-14T22:57:27.312Z,55.08
2023-02-14T22:59:53.855Z,65.13
2023-02-14T23:02:20.408Z,60.50
2023-02-14T23:04:46.882Z,65.32
2023-02-14T23:07:13.289Z,66.72
2023-02-14T23:09:39.757Z,68.28
2023-02-14T23:12:26.143Z,69.00
2023-02-14T23:15:11.403Z,70.53
2023-02-14T23:17:56.551Z,76.20
2023-02-14T23:20:42.001Z,65.85
2023-02-14T23:23:08.561Z,63.00
2023-02-14T23:25:34.975Z,62.05
2023-02-14T23:28:01.403Z,65.05
2023-02-14T23:30:27.955Z,64.28
2023-02-14T23:32:54.758Z,65.28
2023-02-14T23:35:21.243Z,63.55
2023-02-14T23:37:47.763Z,65.80
2023-02-14T23:40:14.198Z,58.20
2023-02-14T23:42:40.685Z,58.67
2023-02-14T23:45:26.129Z,60.63
2023-02-14T23:47:52.708Z,63.35
2023-02-14T23:50:19.139Z,62.05
2023-02-14T23:52:45.637Z,62.60
2023-02-14T23:55:12.281Z,55.17
2023-02-14T23:57:38.906Z,58.78
